createdAt,value
2022-12-09T00:00:32.027Z,26.10
2022-12-09T00:02:59.667Z,30.60
2022-12-09T00:05:27.015Z,35.10
2022-12-09T00:07:54.515Z,40.57
2022-12-09T00:10:21.686Z,38.67
2022-12-09T00:12:48.847Z,33.60
2022-12-09T00:15:15.997Z,35.43
2022-12-09T00:17:43.327Z,34.77
2022-12-09T00:20:11.841Z,35.07
2022-12-09T00:22:39.344Z,32.90
2022-12-09T00:25:07.252Z,28.23
2022-12-09T00:27:34.542Z,29.83
2022-12-09T00:30:01.821Z,23.97
2022-12-09T00:32:29.063Z,22.13
2022-12-09T00:34:56.841Z,21.90
2022-12-09T00:37:24.010Z,19.43
2022-12-09T00:39:51.440Z,17.43
2022-12-09T00:42:18.755Z,18.17
2022-12-09T00:44:45.970Z,19.83
2022-12-09T00:47:13.447Z,19.30
2022-12-09T00:49:40.683Z,18.50
2022-12-09T00:52:07.858Z,19.50
2022-12-09T00:54:35.612Z,16.50
2022-12-09T00:57:03.695Z,17.10
2022-12-09T00:59:31.327Z,18.83
2022-12-09T01:01:58.570Z,17.50
2022-12-09T01:04:26.147Z,19.07
2022-12-09T01:06:53.356Z,15.63
2022-12-09T01:09:20.618Z,14.97
2022-12-09T01:11:47.974Z,18.07
2022-12-09T01:14:15.403Z,17.07
2022-12-09T01:16:42.840Z,17.80
2022-12-09T01:19:13.304Z,15.27
2022-12-09T01:21:40.857Z,16.67
2022-12-09T01:24:10.412Z,17.47
2022-12-09T01:26:38.033Z,17.27
2022-12-09T01:29:05.285Z,16.10
2022-12-09T01:31:32.615Z,16.37
2022-12-09T01:34:00.268Z,16.37
2022-12-09T01:36:31.176Z,15.73
2022-12-09T01:39:01.799Z,14.23
2022-12-09T01:41:29.535Z,14.67
2022-12-09T01:44:14.259Z,15.23
2022-12-09T01:46:42.260Z,16.37
2022-12-09T01:49:17.105Z,15.40
2022-12-09T01:51:48.273Z,17.27
2022-12-09T01:54:16.265Z,16.90
2022-12-09T01:56:45.184Z,20.80
2022-12-09T01:59:14.584Z,17.90
2022-12-09T02:01:44.375Z,23.10
2022-12-09T02:04:11.841Z,20.03
2022-12-09T02:06:39.345Z,17.93
2022-12-09T02:09:10.306Z,17.80
2022-12-09T02:11:53.640Z,19.17
2022-12-09T02:14:39.538Z,18.13
2022-12-09T02:17:28.023Z,19.00
2022-12-09T02:20:22.770Z,20.57
2022-12-09T02:23:38.866Z,19.97
2022-12-09T02:26:15.553Z,18.73
2022-12-09T02:29:09.317Z,20.87
2022-12-09T02:32:00.330Z,18.97
2022-12-09T02:34:32.991Z,18.50
2022-12-09T02:37:19.589Z,20.70
2022-12-09T02:40:24.195Z,17.67
2022-12-09T02:42:52.050Z,16.73
2022-12-09T02:45:21.466Z,19.33
2022-12-09T02:47:54.645Z,20.20
2022-12-09T02:50:26.755Z,17.73
2022-12-09T02:52:56.303Z,18.70
2022-12-09T02:55:23.715Z,16.87
2022-12-09T02:57:55.019Z,16.23
2022-12-09T03:00:23.026Z,15.73
2022-12-09T03:02:55.121Z,15.43
2022-12-09T03:05:48.493Z,14.33
2022-12-09T03:08:32.633Z,15.57
2022-12-09T03:11:21.996Z,16.50
2022-12-09T03:14:06.419Z,15.83
2022-12-09T03:16:37.689Z,15.97
2022-12-09T03:19:23.049Z,16.67
2022-12-09T03:21:53.522Z,15.90
2022-12-09T03:25:06.397Z,17.77
2022-12-09T03:28:03.397Z,14.30
2022-12-09T03:30:37.400Z,15.13
2022-12-09T03:33:05.241Z,15.47
2022-12-09T03:35:42.586Z,15.00
2022-12-09T03:38:14.669Z,16.40
2022-12-09T03:40:43.189Z,16.47
2022-12-09T03:43:21.037Z,16.30
2022-12-09T03:45:48.953Z,14.80
2022-12-09T03:48:16.565Z,15.13
2022-12-09T03:50:54.174Z,14.97
2022-12-09T03:53:27.636Z,17.10
2022-12-09T03:56:06.738Z,15.43
2022-12-09T03:58:36.559Z,14.83
2022-12-09T04:01:04.117Z,16.77
2022-12-09T04:03:33.010Z,15.47
2022-12-09T04:06:00.418Z,16.37
2022-12-09T04:08:27.857Z,15.83
2022-12-09T04:10:55.169Z,18.83
2022-12-09T04:13:22.502Z,18.00
2022-12-09T04:15:49.809Z,19.07
2022-12-09T04:18:17.037Z,15.97
2022-12-09T04:20:44.591Z,17.30
2022-12-09T04:23:11.859Z,16.87
2022-12-09T04:25:39.244Z,15.97
2022-12-09T04:28:06.697Z,15.33
2022-12-09T04:30:34.095Z,16.20
2022-12-09T04:33:01.522Z,16.93
2022-12-09T04:35:28.744Z,21.77
2022-12-09T04:37:55.968Z,14.63
2022-12-09T04:40:24.613Z,15.27
2022-12-09T04:42:52.154Z,16.33
2022-12-09T04:45:19.336Z,17.43
2022-12-09T04:47:46.629Z,17.13
2022-12-09T04:50:14.411Z,19.23
2022-12-09T04:52:42.442Z,19.80
2022-12-09T04:55:10.202Z,20.77
2022-12-09T04:57:37.626Z,19.47
2022-12-09T05:00:07.596Z,18.03
2022-12-09T05:02:35.157Z,20.63
2022-12-09T05:05:03.272Z,18.10
2022-12-09T05:07:31.214Z,16.67
2022-12-09T05:09:59.005Z,17.20
2022-12-09T05:12:26.985Z,17.27
2022-12-09T05:14:54.201Z,16.97
2022-12-09T05:17:21.805Z,14.83
2022-12-09T05:19:49.175Z,15.23
2022-12-09T05:22:17.814Z,18.23
2022-12-09T05:24:46.901Z,15.57
2022-12-09T05:27:15.599Z,15.20
2022-12-09T05:29:43.145Z,19.13
2022-12-09T05:32:10.609Z,14.70
2022-12-09T05:34:39.583Z,16.33
2022-12-09T05:37:07.132Z,16.57
2022-12-09T05:39:34.419Z,14.87
2022-12-09T05:42:01.825Z,15.57
2022-12-09T05:44:30.149Z,16.73
2022-12-09T05:46:57.592Z,17.10
2022-12-09T05:49:25.465Z,15.00
2022-12-09T05:51:54.283Z,17.17
2022-12-09T05:54:21.606Z,23.43
2022-12-09T05:56:49.081Z,17.80
2022-12-09T05:59:16.933Z,19.57
2022-12-09T06:01:44.172Z,17.37
2022-12-09T06:04:12.006Z,17.43
2022-12-09T06:06:39.732Z,19.40
2022-12-09T06:09:11.602Z,19.03
2022-12-09T06:11:40.462Z,17.50
2022-12-09T06:14:08.962Z,19.63
2022-12-09T06:16:36.573Z,26.10
2022-12-09T06:19:05.107Z,25.27
2022-12-09T06:21:32.373Z,21.90
2022-12-09T06:23:59.971Z,26.13
2022-12-09T06:26:29.920Z,25.10
2022-12-09T06:28:57.636Z,26.93
2022-12-09T06:31:26.606Z,30.97
2022-12-09T06:33:56.493Z,29.97
2022-12-09T06:36:27.211Z,22.37
2022-12-09T06:38:55.426Z,21.87
2022-12-09T06:41:23.153Z,19.17
2022-12-09T06:43:50.799Z,22.03
2022-12-09T06:46:20.553Z,18.90
2022-12-09T06:48:48.155Z,18.17
2022-12-09T06:51:17.754Z,17.30
2022-12-09T06:53:46.181Z,19.37
2022-12-09T06:56:15.003Z,21.97
2022-12-09T06:58:43.871Z,22.73
2022-12-09T07:01:14.709Z,19.60
2022-12-09T07:03:47.975Z,19.53
2022-12-09T07:06:30.821Z,21.10
2022-12-09T07:09:04.734Z,19.23
2022-12-09T07:11:32.671Z,25.50
2022-12-09T07:14:00.571Z,20.43
2022-12-09T07:16:28.817Z,18.17
2022-12-09T07:18:56.771Z,19.90
2022-12-09T07:21:25.100Z,20.07
2022-12-09T07:23:53.273Z,18.27
2022-12-09T07:26:21.459Z,20.63
2022-12-09T07:28:50.299Z,16.87
2022-12-09T07:31:28.941Z,17.80
2022-12-09T07:33:58.952Z,17.60
2022-12-09T07:36:29.491Z,16.37
2022-12-09T07:39:07.715Z,15.50
2022-12-09T07:41:35.309Z,14.97
2022-12-09T07:44:02.708Z,15.00
2022-12-09T07:46:30.291Z,16.07
2022-12-09T07:48:58.815Z,15.87
2022-12-09T07:51:26.816Z,20.43
2022-12-09T07:53:54.778Z,14.97
2022-12-09T07:56:23.257Z,18.83
2022-12-09T07:58:53.394Z,17.97
2022-12-09T08:01:24.529Z,17.73
2022-12-09T08:03:53.389Z,16.17
2022-12-09T08:06:23.670Z,17.30
2022-12-09T08:08:51.803Z,19.40
2022-12-09T08:11:26.480Z,17.57
2022-12-09T08:13:56.474Z,19.00
2022-12-09T08:16:24.253Z,19.67
2022-12-09T08:18:53.665Z,18.50
2022-12-09T08:21:24.286Z,20.23
2022-12-09T08:23:52.868Z,19.30
2022-12-09T08:26:22.369Z,17.27
2022-12-09T08:28:50.428Z,94.23
2022-12-09T08:31:21.157Z,19.23
2022-12-09T08:33:49.245Z,26.13
2022-12-09T08:36:19.806Z,19.90
2022-12-09T08:38:48.105Z,21.03
2022-12-09T08:41:20.803Z,20.37
2022-12-09T08:43:48.581Z,20.87
2022-12-09T08:46:16.312Z,21.53
2022-12-09T08:48:43.869Z,21.03
2022-12-09T08:51:12.339Z,20.23
2022-12-09T08:53:39.915Z,27.00
2022-12-09T08:56:09.511Z,26.30
2022-12-09T08:58:36.805Z,24.13
2022-12-09T09:01:04.998Z,30.53
2022-12-09T09:03:37.460Z,34.67
2022-12-09T09:06:10.318Z,22.27
2022-12-09T09:08:39.186Z,22.30
2022-12-09T09:11:16.049Z,24.77
2022-12-09T09:13:45.115Z,25.47
2022-12-09T09:16:16.841Z,26.93
2022-12-09T09:18:44.755Z,33.93
2022-12-09T09:21:14.812Z,25.60
2022-12-09T09:23:42.981Z,26.77
2022-12-09T09:26:19.251Z,26.17
2022-12-09T09:28:48.068Z,24.90
2022-12-09T09:31:19.458Z,25.50
2022-12-09T09:33:47.981Z,25.60
2022-12-09T09:36:21.846Z,24.57
2022-12-09T09:38:50.829Z,26.27
2022-12-09T09:41:21.694Z,25.57
2022-12-09T09:43:49.297Z,25.53
2022-12-09T09:46:24.436Z,26.60
2022-12-09T09:48:53.295Z,26.63
2022-12-09T09:51:21.889Z,24.50
2022-12-09T09:53:51.448Z,26.30
2022-12-09T09:56:31.366Z,25.87
2022-12-09T09:59:37.489Z,27.13
2022-12-09T10:02:34.367Z,29.30
2022-12-09T10:05:16.691Z,27.63
2022-12-09T10:07:51.565Z,26.47
2022-12-09T10:10:47.423Z,26.13
2022-12-09T10:13:42.146Z,26.23
2022-12-09T10:16:17.955Z,27.87
2022-12-09T10:19:07.739Z,26.80
2022-12-09T10:21:41.069Z,29.50
2022-12-09T10:24:20.027Z,27.60
2022-12-09T10:27:12.006Z,29.37
2022-12-09T10:29:55.906Z,29.40
2022-12-09T10:32:27.882Z,28.00
2022-12-09T10:34:55.332Z,28.17
2022-12-09T10:37:33.168Z,28.73
2022-12-09T10:40:13.152Z,29.10
2022-12-09T10:43:17.030Z,29.47
2022-12-09T10:46:15.526Z,29.20
2022-12-09T10:48:41.476Z,30.10
2022-12-09T10:51:31.182Z,28.60
2022-12-09T10:54:04.293Z,29.63
2022-12-09T10:56:35.033Z,30.73
2022-12-09T10:59:18.023Z,31.00
2022-12-09T11:02:02.694Z,39.63
2022-12-09T11:04:33.906Z,32.40
2022-12-09T11:07:11.907Z,29.70
2022-12-09T11:09:43.771Z,33.33
2022-12-09T11:12:41.450Z,32.83
2022-12-09T11:15:12.697Z,29.87
2022-12-09T11:17:56.094Z,33.83
2022-12-09T11:20:29.889Z,29.80
2022-12-09T11:23:12.746Z,28.77
2022-12-09T11:26:02.616Z,28.53
2022-12-09T11:28:40.543Z,28.70
2022-12-09T11:31:35.807Z,26.20
2022-12-09T11:34:14.606Z,25.97
2022-12-09T11:36:48.106Z,26.53
2022-12-09T11:39:34.294Z,28.20
2022-12-09T11:42:17.905Z,25.83
2022-12-09T11:44:59.389Z,25.90
2022-12-09T11:48:21.578Z,28.50
2022-12-09T11:50:32.913Z,32.57
2022-12-09T11:53:12.594Z,32.77
2022-12-09T11:55:49.315Z,32.10
2022-12-09T11:58:23.430Z,32.80
2022-12-09T12:01:05.133Z,30.50
2022-12-09T12:03:42.231Z,32.37
2022-12-09T12:06:38.325Z,32.23
2022-12-09T12:09:19.056Z,31.60
2022-12-09T12:12:05.187Z,38.10
2022-12-09T12:14:35.135Z,33.23
2022-12-09T12:17:22.187Z,34.50
2022-12-09T12:19:51.515Z,34.50
2022-12-09T12:22:43.503Z,33.43
2022-12-09T12:25:48.402Z,33.90
2022-12-09T12:28:35.186Z,33.53
2022-12-09T12:31:26.039Z,33.27
2022-12-09T12:34:34.301Z,38.33
2022-12-09T12:37:47.171Z,40.50
2022-12-09T12:40:36.952Z,35.20
2022-12-09T12:43:48.707Z,36.53
2022-12-09T12:46:49.603Z,33.80
2022-12-09T12:49:16.698Z,30.97
2022-12-09T12:52:21.018Z,31.13
2022-12-09T12:54:55.576Z,31.90
2022-12-09T12:57:46.838Z,32.90
2022-12-09T13:00:24.039Z,31.63
2022-12-09T13:03:09.436Z,34.30
2022-12-09T13:05:41.145Z,35.10
2022-12-09T13:08:21.729Z,31.83
2022-12-09T13:10:55.711Z,34.83
2022-12-09T13:13:38.533Z,33.10
2022-12-09T13:16:24.613Z,35.20
2022-12-09T13:18:52.364Z,31.43
2022-12-09T13:21:21.959Z,36.90
2022-12-09T13:24:00.370Z,36.87
2022-12-09T13:26:44.308Z,38.27
2022-12-09T13:29:14.499Z,37.77
2022-12-09T13:32:10.601Z,34.40
2022-12-09T13:34:41.711Z,36.97
2022-12-09T13:37:32.032Z,36.63
2022-12-09T13:39:59.427Z,34.97
2022-12-09T13:42:47.249Z,36.70
2022-12-09T13:45:23.669Z,37.23
2022-12-09T13:47:53.294Z,37.03
2022-12-09T13:50:39.330Z,38.17
2022-12-09T13:53:20.343Z,36.33
2022-12-09T13:55:53.084Z,35.33
2022-12-09T13:58:36.756Z,34.77
2022-12-09T14:01:13.141Z,34.13
2022-12-09T14:04:35.101Z,34.30
2022-12-09T14:07:36.044Z,33.43
2022-12-09T14:10:04.330Z,37.60
2022-12-09T14:12:32.542Z,35.67
2022-12-09T14:15:19.490Z,38.30
2022-12-09T14:17:46.581Z,36.07
2022-12-09T14:20:21.161Z,38.97
2022-12-09T14:23:06.741Z,33.40
2022-12-09T14:25:33.873Z,40.23
2022-12-09T14:28:32.973Z,37.33
2022-12-09T14:31:06.600Z,35.30
2022-12-09T14:33:45.599Z,35.47
2022-12-09T14:36:15.774Z,40.80
2022-12-09T14:41:58.670Z,36.33
2022-12-09T14:45:03.080Z,34.80
2022-12-09T14:47:39.232Z,39.27
2022-12-09T14:50:14.059Z,36.47
2022-12-09T14:52:52.177Z,37.33
2022-12-09T14:55:22.992Z,37.20
2022-12-09T14:57:52.109Z,36.43
2022-12-09T15:00:36.395Z,38.60
2022-12-09T15:03:36.747Z,37.33
2022-12-09T15:06:10.938Z,40.03
2022-12-09T15:08:40.460Z,39.43
2022-12-09T15:11:25.798Z,95.63
2022-12-09T15:13:55.722Z,42.33
2022-12-09T15:16:26.020Z,37.67
2022-12-09T15:18:54.683Z,40.30
2022-12-09T15:21:31.560Z,36.23
2022-12-09T15:24:00.475Z,43.30
2022-12-09T15:26:30.582Z,40.20
2022-12-09T15:29:04.973Z,37.90
2022-12-09T15:31:34.069Z,35.37
2022-12-09T15:34:15.504Z,42.60
2022-12-09T15:36:49.771Z,36.80
2022-12-09T15:39:23.415Z,37.83
2022-12-09T15:42:07.566Z,36.40
2022-12-09T15:44:53.310Z,34.70
2022-12-09T15:47:41.550Z,36.17
2022-12-09T15:50:26.611Z,37.13
2022-12-09T15:52:56.030Z,37.07
2022-12-09T15:55:50.362Z,35.93
2022-12-09T15:58:23.995Z,41.77
2022-12-09T16:00:51.987Z,42.33
2022-12-09T16:03:28.581Z,39.40
2022-12-09T16:06:01.027Z,41.83
2022-12-09T16:08:43.180Z,38.83
2022-12-09T16:11:11.304Z,40.70
2022-12-09T16:14:04.843Z,39.03
2022-12-09T16:16:56.846Z,39.57
2022-12-09T16:19:23.966Z,36.83
2022-12-09T16:21:56.887Z,38.20
2022-12-09T16:24:25.077Z,36.57
2022-12-09T16:26:54.534Z,38.07
2022-12-09T16:29:30.625Z,38.00
2022-12-09T16:32:30.293Z,36.67
2022-12-09T16:35:11.569Z,34.87
2022-12-09T16:37:41.800Z,33.40
2022-12-09T16:40:20.978Z,35.27
2022-12-09T16:42:53.619Z,36.80
2022-12-09T16:45:36.925Z,34.70
2022-12-09T16:48:04.928Z,39.13
2022-12-09T16:50:35.788Z,36.83
2022-12-09T16:53:07.132Z,35.20
2022-12-09T16:55:34.333Z,37.80
2022-12-09T16:58:01.509Z,37.40
2022-12-09T17:00:28.829Z,35.93
2022-12-09T17:03:06.033Z,35.37
2022-12-09T17:05:33.307Z,33.83
2022-12-09T17:08:00.566Z,36.33
2022-12-09T17:10:27.922Z,36.00
2022-12-09T17:12:55.179Z,37.37
2022-12-09T17:15:22.545Z,34.27
2022-12-09T17:17:50.812Z,33.33
2022-12-09T17:20:18.098Z,36.93
2022-12-09T17:22:45.323Z,35.37
2022-12-09T17:25:12.568Z,36.40
2022-12-09T17:27:39.702Z,41.13
2022-12-09T17:30:07.507Z,41.60
2022-12-09T17:32:34.694Z,40.93
2022-12-09T17:35:01.822Z,40.00
2022-12-09T17:37:28.979Z,40.40
2022-12-09T17:40:03.186Z,40.83
2022-12-09T17:42:30.978Z,38.80
2022-12-09T17:44:58.253Z,44.07
2022-12-09T17:47:25.402Z,39.50
2022-12-09T17:49:52.887Z,42.30
2022-12-09T17:52:20.079Z,41.43
2022-12-09T17:54:47.767Z,43.73
2022-12-09T17:57:14.978Z,42.80
2022-12-09T17:59:42.109Z,44.60
2022-12-09T18:02:10.740Z,41.67
2022-12-09T18:04:37.898Z,40.83
2022-12-09T18:07:05.029Z,50.10
2022-12-09T18:09:32.395Z,43.50
2022-12-09T18:11:59.858Z,55.00
2022-12-09T18:14:27.145Z,95.77
2022-12-09T18:16:54.383Z,59.03
2022-12-09T18:19:23.328Z,52.63
2022-12-09T18:21:51.623Z,48.83
2022-12-09T18:24:18.774Z,60.93
2022-12-09T18:26:45.954Z,57.30
2022-12-09T18:29:13.847Z,60.67
2022-12-09T18:31:42.063Z,60.83
2022-12-09T18:34:09.302Z,59.77
2022-12-09T18:36:37.144Z,67.13
2022-12-09T18:39:04.781Z,70.27
2022-12-09T18:41:32.824Z,71.63
2022-12-09T18:44:03.647Z,62.30
2022-12-09T18:46:36.612Z,48.60
2022-12-09T18:49:12.676Z,49.10
2022-12-09T18:51:41.389Z,55.90
2022-12-09T18:54:08.930Z,59.60
2022-12-09T18:56:37.107Z,57.10
2022-12-09T18:59:07.442Z,47.93
2022-12-09T19:01:41.227Z,42.77
2022-12-09T19:04:16.377Z,46.60
2022-12-09T19:06:46.531Z,54.33
2022-12-09T19:09:18.257Z,48.77
2022-12-09T19:11:47.333Z,46.07
2022-12-09T19:14:16.646Z,49.90
2022-12-09T19:16:44.677Z,44.90
2022-12-09T19:19:18.410Z,45.43
2022-12-09T19:21:46.049Z,52.97
2022-12-09T19:24:18.891Z,47.53
2022-12-09T19:26:46.497Z,49.97
2022-12-09T19:29:14.864Z,58.33
2022-12-09T19:31:45.250Z,55.57
2022-12-09T19:34:21.538Z,53.60
2022-12-09T19:36:50.550Z,56.40
2022-12-09T19:39:20.506Z,51.30
2022-12-09T19:41:48.246Z,54.57
2022-12-09T19:44:30.918Z,59.63
2022-12-09T19:47:05.144Z,48.50
2022-12-09T19:49:32.372Z,50.20
2022-12-09T19:51:59.904Z,48.63
2022-12-09T19:54:29.499Z,46.30
2022-12-09T19:56:56.956Z,47.93
2022-12-09T19:59:24.186Z,50.40
2022-12-09T20:01:51.770Z,51.17
2022-12-09T20:07:08.812Z,48.80
2022-12-09T20:09:37.356Z,46.37
2022-12-09T20:12:04.905Z,46.77
2022-12-09T20:14:32.124Z,47.83
2022-12-09T20:16:59.255Z,41.70
2022-12-09T20:19:26.584Z,53.80
2022-12-09T20:21:53.828Z,48.23
2022-12-09T20:24:21.070Z,43.20
2022-12-09T20:26:48.416Z,42.60
2022-12-09T20:29:15.649Z,50.80
2022-12-09T20:31:43.071Z,48.87
2022-12-09T20:34:16.032Z,43.10
2022-12-09T20:36:44.804Z,47.03
2022-12-09T20:39:17.918Z,44.47
2022-12-09T20:41:46.236Z,45.47
2022-12-09T20:44:14.379Z,49.30
2022-12-09T20:46:45.638Z,45.97
2022-12-09T20:49:12.782Z,47.17
2022-12-09T20:51:41.272Z,43.57
2022-12-09T20:54:10.563Z,41.70
2022-12-09T20:56:38.044Z,42.50
2022-12-09T20:59:06.583Z,47.80
2022-12-09T21:01:35.487Z,42.17
2022-12-09T21:04:05.222Z,43.50
2022-12-09T21:06:35.072Z,39.40
2022-12-09T21:09:05.705Z,37.53
2022-12-09T21:11:33.336Z,39.77
2022-12-09T21:14:03.490Z,40.70
2022-12-09T21:16:37.761Z,34.47
2022-12-09T21:19:07.146Z,38.17
2022-12-09T21:21:35.786Z,40.43
2022-12-09T21:24:03.874Z,39.03
2022-12-09T21:26:31.325Z,41.80
2022-12-09T21:29:00.715Z,42.47
2022-12-09T21:31:30.960Z,42.37
2022-12-09T21:34:03.752Z,41.60
2022-12-09T21:36:36.497Z,43.63
2022-12-09T21:39:05.082Z,41.50
2022-12-09T21:41:34.898Z,41.47
2022-12-09T21:44:02.828Z,40.57
2022-12-09T21:46:32.374Z,42.83
2022-12-09T21:49:03.895Z,78.70
2022-12-09T21:51:32.858Z,47.13
2022-12-09T21:54:00.136Z,35.33
2022-12-09T21:56:30.360Z,39.17
2022-12-09T21:58:58.908Z,43.33
2022-12-09T22:01:29.270Z,41.03
2022-12-09T22:03:57.839Z,44.63
2022-12-09T22:06:25.669Z,40.17
2022-12-09T22:08:53.110Z,44.67
2022-12-09T22:11:23.658Z,45.93
2022-12-09T22:13:51.504Z,44.90
2022-12-09T22:16:24.305Z,65.67
2022-12-09T22:18:54.123Z,108.17
2022-12-09T22:21:25.285Z,45.67
2022-12-09T22:23:58.698Z,38.30
2022-12-09T22:26:26.843Z,42.30
2022-12-09T22:28:54.894Z,41.27
2022-12-09T22:31:25.719Z,36.27
2022-12-09T22:33:58.159Z,45.97
2022-12-09T22:36:25.535Z,43.73
2022-12-09T22:38:53.608Z,42.80
2022-12-09T22:41:25.501Z,43.93
2022-12-09T22:43:54.509Z,45.60
2022-12-09T22:46:27.779Z,46.40
2022-12-09T22:48:57.498Z,49.37
2022-12-09T22:51:27.551Z,46.27
2022-12-09T22:53:57.137Z,46.07
2022-12-09T22:56:25.370Z,46.87
2022-12-09T22:58:53.205Z,47.47
2022-12-09T23:01:32.783Z,39.43
2022-12-09T23:04:00.474Z,41.43
2022-12-09T23:06:29.190Z,44.10
2022-12-09T23:08:57.123Z,42.67
2022-12-09T23:11:26.506Z,40.93
2022-12-09T23:13:54.453Z,42.80
2022-12-09T23:16:23.713Z,36.67
2022-12-09T23:18:51.356Z,44.07
2022-12-09T23:21:24.937Z,45.03
2022-12-09T23:23:57.216Z,42.63
2022-12-09T23:26:26.855Z,39.13
2022-12-09T23:28:56.803Z,36.50
2022-12-09T23:31:27.493Z,36.80
2022-12-09T23:33:55.687Z,44.53
2022-12-09T23:36:31.602Z,45.37
2022-12-09T23:39:00.081Z,45.30
2022-12-09T23:41:28.154Z,40.67
2022-12-09T23:43:55.706Z,41.93
2022-12-09T23:46:26.406Z,40.47
2022-12-09T23:48:54.692Z,38.73
2022-12-09T23:51:31.647Z,40.93
2022-12-09T23:54:01.221Z,47.33
2022-12-09T23:56:30.555Z,40.87
2022-12-09T23:59:04.719Z,44.03
